sensor_id;sensor_type;location;lat;lon;timestamp;temperature;humidity
61392;DHT22;47261;52.892;5.738;2022-08-01T00:01:31;18.80;96.90
61392;DHT22;47261;52.892;5.738;2022-08-01T00:03:56;18.80;96.90
61392;DHT22;47261;52.892;5.738;2022-08-01T00:06:22;18.80;96.90
61392;DHT22;47261;52.892;5.738;2022-08-01T00:08:48;18.90;96.90
61392;DHT22;47261;52.892;5.738;2022-08-01T00:11:13;18.80;96.90
61392;DHT22;47261;52.892;5.738;2022-08-01T00:13:39;18.80;97.00
61392;DHT22;47261;52.892;5.738;2022-08-01T00:16:05;18.80;97.00
61392;DHT22;47261;52.892;5.738;2022-08-01T00:18:30;18.80;97.00
61392;DHT22;47261;52.892;5.738;2022-08-01T00:20:56;18.80;97.00
61392;DHT22;47261;52.892;5.738;2022-08-01T00:23:21;18.80;97.00
61392;DHT22;47261;52.892;5.738;2022-08-01T00:25:47;18.90;97.00
61392;DHT22;47261;52.892;5.738;2022-08-01T00:28:12;18.80;96.90
61392;DHT22;47261;52.892;5.738;2022-08-01T00:30:38;18.80;96.90
61392;DHT22;47261;52.892;5.738;2022-08-01T00:33:04;18.90;97.00
61392;DHT22;47261;52.892;5.738;2022-08-01T00:35:30;18.90;97.00
61392;DHT22;47261;52.892;5.738;2022-08-01T00:37:55;18.80;96.90
61392;DHT22;47261;52.892;5.738;2022-08-01T00:40:21;18.80;96.90
61392;DHT22;47261;52.892;5.738;2022-08-01T00:42:46;18.80;96.90
61392;DHT22;47261;52.892;5.738;2022-08-01T00:45:12;18.90;97.00
61392;DHT22;47261;52.892;5.738;2022-08-01T00:47:37;18.80;96.90
61392;DHT22;47261;52.892;5.738;2022-08-01T00:50:03;18.80;96.90
61392;DHT22;47261;52.892;5.738;2022-08-01T00:52:29;18.80;96.90
61392;DHT22;47261;52.892;5.738;2022-08-01T00:54:55;18.90;96.90
61392;DHT22;47261;52.892;5.738;2022-08-01T00:57:20;18.90;96.90
61392;DHT22;47261;52.892;5.738;2022-08-01T00:59:46;18.90;96.90
61392;DHT22;47261;52.892;5.738;2022-08-01T01:02:12;18.90;96.90
61392;DHT22;47261;52.892;5.738;2022-08-01T01:04:37;18.90;96.90
61392;DHT22;47261;52.892;5.738;2022-08-01T01:07:17;18.90;96.90
61392;DHT22;47261;52.892;5.738;2022-08-01T01:09:52;18.80;96.90
61392;DHT22;47261;52.892;5.738;2022-08-01T01:17:18;18.70;97.00
61392;DHT22;47261;52.892;5.738;2022-08-01T01:19:46;18.60;97.10
61392;DHT22;47261;52.892;5.738;2022-08-01T01:27:36;18.50;97.20
61392;DHT22;47261;52.892;5.738;2022-08-01T01:30:04;18.50;97.60
61392;DHT22;47261;52.892;5.738;2022-08-01T01:32:32;18.50;97.30
61392;DHT22;47261;52.892;5.738;2022-08-01T01:34:59;18.50;97.40
61392;DHT22;47261;52.892;5.738;2022-08-01T01:37:25;18.50;97.40
61392;DHT22;47261;52.892;5.738;2022-08-01T01:39:52;18.50;97.40
61392;DHT22;47261;52.892;5.738;2022-08-01T01:42:18;18.40;97.40
61392;DHT22;47261;52.892;5.738;2022-08-01T01:44:44;18.40;97.40
61392;DHT22;47261;52.892;5.738;2022-08-01T01:47:11;18.40;97.50
61392;DHT22;47261;52.892;5.738;2022-08-01T01:49:36;18.40;97.50
61392;DHT22;47261;52.892;5.738;2022-08-01T01:52:02;18.40;97.40
61392;DHT22;47261;52.892;5.738;2022-08-01T01:54:30;18.40;97.40
61392;DHT22;47261;52.892;5.738;2022-08-01T01:56:56;18.50;97.40
61392;DHT22;47261;52.892;5.738;2022-08-01T01:59:24;18.40;97.40
61392;DHT22;47261;52.892;5.738;2022-08-01T02:01:51;18.40;97.40
61392;DHT22;47261;52.892;5.738;2022-08-01T02:04:17;18.30;97.40
61392;DHT22;47261;52.892;5.738;2022-08-01T02:06:45;18.40;97.40
61392;DHT22;47261;52.892;5.738;2022-08-01T02:09:13;18.40;97.40
61392;DHT22;47261;52.892;5.738;2022-08-01T02:11:39;18.30;97.40
61392;DHT22;47261;52.892;5.738;2022-08-01T02:14:05;18.40;97.40
61392;DHT22;47261;52.892;5.738;2022-08-01T02:16:34;18.30;97.70
61392;DHT22;47261;52.892;5.738;2022-08-01T02:19:00;18.30;97.40
61392;DHT22;47261;52.892;5.738;2022-08-01T02:21:28;18.30;97.40
61392;DHT22;47261;52.892;5.738;2022-08-01T02:23:55;18.40;97.40
61392;DHT22;47261;52.892;5.738;2022-08-01T02:26:22;18.30;97.40
61392;DHT22;47261;52.892;5.738;2022-08-01T02:28:50;18.40;97.40
61392;DHT22;47261;52.892;5.738;2022-08-01T02:31:19;18.40;97.40
61392;DHT22;47261;52.892;5.738;2022-08-01T02:33:46;18.30;97.40
61392;DHT22;47261;52.892;5.738;2022-08-01T02:36:13;18.30;97.40
61392;DHT22;47261;52.892;5.738;2022-08-01T02:38:43;18.40;97.40
61392;DHT22;47261;52.892;5.738;2022-08-01T02:41:14;18.30;97.40
61392;DHT22;47261;52.892;5.738;2022-08-01T02:43:43;18.40;97.40
61392;DHT22;47261;52.892;5.738;2022-08-01T02:46:13;18.30;97.30
61392;DHT22;47261;52.892;5.738;2022-08-01T02:48:41;18.40;97.40
61392;DHT22;47261;52.892;5.738;2022-08-01T02:51:07;18.40;97.40
61392;DHT22;47261;52.892;5.738;2022-08-01T02:53:33;18.40;97.40
61392;DHT22;47261;52.892;5.738;2022-08-01T02:56:03;18.40;97.30
61392;DHT22;47261;52.892;5.738;2022-08-01T02:58:29;18.40;97.30
61392;DHT22;47261;52.892;5.738;2022-08-01T03:00:56;18.40;97.30
61392;DHT22;47261;52.892;5.738;2022-08-01T03:03:22;18.40;97.20
61392;DHT22;47261;52.892;5.738;2022-08-01T03:05:48;18.40;97.20
61392;DHT22;47261;52.892;5.738;2022-08-01T03:08:14;18.40;97.20
61392;DHT22;47261;52.892;5.738;2022-08-01T03:10:41;18.40;97.10
61392;DHT22;47261;52.892;5.738;2022-08-01T03:13:08;18.40;97.10
61392;DHT22;47261;52.892;5.738;2022-08-01T03:15:35;18.40;97.10
61392;DHT22;47261;52.892;5.738;2022-08-01T03:18:01;18.30;97.10
61392;DHT22;47261;52.892;5.738;2022-08-01T03:20:28;18.30;97.10
61392;DHT22;47261;52.892;5.738;2022-08-01T03:22:55;18.30;97.20
61392;DHT22;47261;52.892;5.738;2022-08-01T03:25:21;18.30;97.20
61392;DHT22;47261;52.892;5.738;2022-08-01T03:27:48;18.30;97.20
61392;DHT22;47261;52.892;5.738;2022-08-01T03:30:15;18.30;97.20
61392;DHT22;47261;52.892;5.738;2022-08-01T03:32:41;18.30;97.20
61392;DHT22;47261;52.892;5.738;2022-08-01T03:35:07;18.30;97.30
61392;DHT22;47261;52.892;5.738;2022-08-01T03:37:34;18.30;97.50
61392;DHT22;47261;52.892;5.738;2022-08-01T03:40:04;18.20;97.20
61392;DHT22;47261;52.892;5.738;2022-08-01T03:42:32;18.30;97.50
61392;DHT22;47261;52.892;5.738;2022-08-01T03:44:59;18.30;97.20
61392;DHT22;47261;52.892;5.738;2022-08-01T03:47:26;18.20;97.20
61392;DHT22;47261;52.892;5.738;2022-08-01T03:49:55;18.20;97.20
61392;DHT22;47261;52.892;5.738;2022-08-01T03:52:22;18.20;97.20
61392;DHT22;47261;52.892;5.738;2022-08-01T03:54:49;18.30;97.30
61392;DHT22;47261;52.892;5.738;2022-08-01T03:57:15;18.30;97.20
61392;DHT22;47261;52.892;5.738;2022-08-01T03:59:41;18.20;97.20
61392;DHT22;47261;52.892;5.738;2022-08-01T04:02:08;18.20;97.20
61392;DHT22;47261;52.892;5.738;2022-08-01T04:04:33;18.20;97.20
61392;DHT22;47261;52.892;5.738;2022-08-01T04:06:59;18.20;97.20
61392;DHT22;47261;52.892;5.738;2022-08-01T04:09:30;18.20;97.20
61392;DHT22;47261;52.892;5.738;2022-08-01T04:11:56;18.20;97.20
61392;DHT22;47261;52.892;5.738;2022-08-01T04:14:21;18.20;97.20
61392;DHT22;47261;52.892;5.738;2022-08-01T04:16:47;18.20;97.20
61392;DHT22;47261;52.892;5.738;2022-08-01T04:19:12;18.20;97.20
61392;DHT22;47261;52.892;5.738;2022-08-01T04:21:38;18.20;97.20
61392;DHT22;47261;52.892;5.738;2022-08-01T04:24:08;18.20;97.20
61392;DHT22;47261;52.892;5.738;2022-08-01T04:26:34;18.20;97.20
61392;DHT22;47261;52.892;5.738;2022-08-01T04:29:00;18.20;97.10
61392;DHT22;47261;52.892;5.738;2022-08-01T04:31:27;18.10;97.10
61392;DHT22;47261;52.892;5.738;2022-08-01T04:33:53;18.10;97.10
61392;DHT22;47261;52.892;5.738;2022-08-01T04:36:20;18.10;97.00
61392;DHT22;47261;52.892;5.738;2022-08-01T04:38:48;18.00;97.00
61392;DHT22;47261;52.892;5.738;2022-08-01T04:41:16;18.00;97.00
61392;DHT22;47261;52.892;5.738;2022-08-01T04:43:42;18.00;97.00
61392;DHT22;47261;52.892;5.738;2022-08-01T04:46:08;17.90;97.00
61392;DHT22;47261;52.892;5.738;2022-08-01T04:48:34;17.90;97.00
61392;DHT22;47261;52.892;5.738;2022-08-01T04:51:01;17.80;97.00
61392;DHT22;47261;52.892;5.738;2022-08-01T04:53:26;17.80;97.00
61392;DHT22;47261;52.892;5.738;2022-08-01T04:55:53;17.80;97.00
61392;DHT22;47261;52.892;5.738;2022-08-01T04:58:18;17.80;97.00
61392;DHT22;47261;52.892;5.738;2022-08-01T05:00:44;17.70;97.00
61392;DHT22;47261;52.892;5.738;2022-08-01T05:03:10;17.70;97.00
61392;DHT22;47261;52.892;5.738;2022-08-01T05:05:35;17.70;97.00
61392;DHT22;47261;52.892;5.738;2022-08-01T05:08:01;17.70;97.10
61392;DHT22;47261;52.892;5.738;2022-08-01T05:10:27;17.70;97.10
61392;DHT22;47261;52.892;5.738;2022-08-01T05:12:52;17.70;97.10
61392;DHT22;47261;52.892;5.738;2022-08-01T05:15:18;17.70;97.10
61392;DHT22;47261;52.892;5.738;2022-08-01T05:17:44;17.70;97.10
61392;DHT22;47261;52.892;5.738;2022-08-01T05:20:10;17.70;97.10
61392;DHT22;47261;52.892;5.738;2022-08-01T05:22:36;17.70;97.10
61392;DHT22;47261;52.892;5.738;2022-08-01T05:25:02;17.70;97.10
61392;DHT22;47261;52.892;5.738;2022-08-01T05:27:30;17.70;97.10
61392;DHT22;47261;52.892;5.738;2022-08-01T05:29:56;17.70;97.10
61392;DHT22;47261;52.892;5.738;2022-08-01T05:32:21;17.70;97.00
61392;DHT22;47261;52.892;5.738;2022-08-01T05:34:47;17.70;97.00
61392;DHT22;47261;52.892;5.738;2022-08-01T05:37:12;17.70;96.90
61392;DHT22;47261;52.892;5.738;2022-08-01T05:39:38;17.70;96.90
61392;DHT22;47261;52.892;5.738;2022-08-01T05:42:04;17.70;96.90
61392;DHT22;47261;52.892;5.738;2022-08-01T05:44:29;17.80;96.80
61392;DHT22;47261;52.892;5.738;2022-08-01T05:46:55;17.80;96.80
61392;DHT22;47261;52.892;5.738;2022-08-01T05:49:20;17.70;96.70
61392;DHT22;47261;52.892;5.738;2022-08-01T05:51:46;17.70;96.60
61392;DHT22;47261;52.892;5.738;2022-08-01T05:54:11;17.70;96.60
61392;DHT22;47261;52.892;5.738;2022-08-01T05:56:37;17.70;96.60
61392;DHT22;47261;52.892;5.738;2022-08-01T05:59:02;17.80;96.60
61392;DHT22;47261;52.892;5.738;2022-08-01T06:01:28;17.80;96.50
61392;DHT22;47261;52.892;5.738;2022-08-01T06:03:54;17.70;96.40
61392;DHT22;47261;52.892;5.738;2022-08-01T06:06:22;17.80;96.30
61392;DHT22;47261;52.892;5.738;2022-08-01T06:08:48;17.80;96.20
61392;DHT22;47261;52.892;5.738;2022-08-01T06:11:14;17.80;96.10
61392;DHT22;47261;52.892;5.738;2022-08-01T06:13:40;17.80;96.00
61392;DHT22;47261;52.892;5.738;2022-08-01T06:16:05;17.80;96.00
61392;DHT22;47261;52.892;5.738;2022-08-01T06:18:31;17.80;95.80
61392;DHT22;47261;52.892;5.738;2022-08-01T06:20:56;17.80;95.70
61392;DHT22;47261;52.892;5.738;2022-08-01T06:23:22;17.90;95.80
61392;DHT22;47261;52.892;5.738;2022-08-01T06:25:48;17.90;95.70
61392;DHT22;47261;52.892;5.738;2022-08-01T06:28:13;17.90;95.60
61392;DHT22;47261;52.892;5.738;2022-08-01T06:30:39;18.00;95.60
61392;DHT22;47261;52.892;5.738;2022-08-01T06:33:04;18.00;95.40
61392;DHT22;47261;52.892;5.738;2022-08-01T06:35:30;18.00;95.20
61392;DHT22;47261;52.892;5.738;2022-08-01T06:37:56;18.10;95.20
61392;DHT22;47261;52.892;5.738;2022-08-01T06:40:22;18.10;95.00
61392;DHT22;47261;52.892;5.738;2022-08-01T06:42:48;18.10;94.90
61392;DHT22;47261;52.892;5.738;2022-08-01T06:45:13;18.20;94.80
61392;DHT22;47261;52.892;5.738;2022-08-01T06:47:40;18.20;94.60
61392;DHT22;47261;52.892;5.738;2022-08-01T06:50:06;18.30;94.50
61392;DHT22;47261;52.892;5.738;2022-08-01T06:52:32;18.30;94.40
61392;DHT22;47261;52.892;5.738;2022-08-01T06:54:58;18.40;94.20
61392;DHT22;47261;52.892;5.738;2022-08-01T06:57:23;18.40;94.00
61392;DHT22;47261;52.892;5.738;2022-08-01T06:59:49;18.50;93.90
61392;DHT22;47261;52.892;5.738;2022-08-01T07:02:14;18.50;93.60
61392;DHT22;47261;52.892;5.738;2022-08-01T07:04:40;18.50;93.40
61392;DHT22;47261;52.892;5.738;2022-08-01T07:07:05;18.60;93.30
61392;DHT22;47261;52.892;5.738;2022-08-01T07:09:31;18.60;93.10
61392;DHT22;47261;52.892;5.738;2022-08-01T07:11:56;18.60;92.80
61392;DHT22;47261;52.892;5.738;2022-08-01T07:14:23;18.60;92.80
61392;DHT22;47261;52.892;5.738;2022-08-01T07:16:48;18.60;92.80
61392;DHT22;47261;52.892;5.738;2022-08-01T07:19:14;18.70;92.90
61392;DHT22;47261;52.892;5.738;2022-08-01T07:21:39;18.80;93.00
61392;DHT22;47261;52.892;5.738;2022-08-01T07:24:05;19.00;93.00
61392;DHT22;47261;52.892;5.738;2022-08-01T07:26:31;19.10;92.70
61392;DHT22;47261;52.892;5.738;2022-08-01T07:28:57;19.30;92.20
61392;DHT22;47261;52.892;5.738;2022-08-01T07:31:23;19.30;91.30
61392;DHT22;47261;52.892;5.738;2022-08-01T07:33:49;19.30;90.90
61392;DHT22;47261;52.892;5.738;2022-08-01T07:36:17;19.20;91.10
61392;DHT22;47261;52.892;5.738;2022-08-01T07:38:43;19.20;91.00
61392;DHT22;47261;52.892;5.738;2022-08-01T07:41:09;19.10;91.10
61392;DHT22;47261;52.892;5.738;2022-08-01T07:43:34;19.00;91.20
61392;DHT22;47261;52.892;5.738;2022-08-01T07:46:01;19.00;91.20
61392;DHT22;47261;52.892;5.738;2022-08-01T07:48:27;19.00;91.40
61392;DHT22;47261;52.892;5.738;2022-08-01T07:50:52;19.00;91.50
61392;DHT22;47261;52.892;5.738;2022-08-01T07:53:18;19.10;91.20
61392;DHT22;47261;52.892;5.738;2022-08-01T07:55:44;19.10;91.00
61392;DHT22;47261;52.892;5.738;2022-08-01T07:58:09;19.10;90.90
61392;DHT22;47261;52.892;5.738;2022-08-01T08:00:35;19.00;90.90
61392;DHT22;47261;52.892;5.738;2022-08-01T08:03:00;19.00;91.20
61392;DHT22;47261;52.892;5.738;2022-08-01T08:05:26;19.10;91.30
61392;DHT22;47261;52.892;5.738;2022-08-01T08:07:52;19.10;91.00
61392;DHT22;47261;52.892;5.738;2022-08-01T08:10:17;19.10;90.90
61392;DHT22;47261;52.892;5.738;2022-08-01T08:12:43;19.20;90.80
61392;DHT22;47261;52.892;5.738;2022-08-01T08:15:09;19.20;90.20
61392;DHT22;47261;52.892;5.738;2022-08-01T08:17:34;19.20;90.00
61392;DHT22;47261;52.892;5.738;2022-08-01T08:20:01;19.30;89.60
61392;DHT22;47261;52.892;5.738;2022-08-01T08:22:27;19.40;90.10
61392;DHT22;47261;52.892;5.738;2022-08-01T08:24:52;19.40;90.10
61392;DHT22;47261;52.892;5.738;2022-08-01T08:27:18;19.50;89.40
61392;DHT22;47261;52.892;5.738;2022-08-01T08:29:43;19.50;88.20
61392;DHT22;47261;52.892;5.738;2022-08-01T08:32:09;19.60;89.00
61392;DHT22;47261;52.892;5.738;2022-08-01T08:34:35;19.60;88.70
61392;DHT22;47261;52.892;5.738;2022-08-01T08:37:00;19.70;87.70
61392;DHT22;47261;52.892;5.738;2022-08-01T08:39:26;19.80;88.10
61392;DHT22;47261;52.892;5.738;2022-08-01T08:41:52;19.90;88.70
61392;DHT22;47261;52.892;5.738;2022-08-01T08:44:18;20.00;89.00
61392;DHT22;47261;52.892;5.738;2022-08-01T08:46:44;20.10;89.10
61392;DHT22;47261;52.892;5.738;2022-08-01T08:49:11;20.30;89.00
61392;DHT22;47261;52.892;5.738;2022-08-01T08:51:38;20.40;88.70
61392;DHT22;47261;52.892;5.738;2022-08-01T08:54:04;20.50;88.70
61392;DHT22;47261;52.892;5.738;2022-08-01T08:56:30;20.60;87.60
61392;DHT22;47261;52.892;5.738;2022-08-01T08:59:00;20.70;87.30
61392;DHT22;47261;52.892;5.738;2022-08-01T09:01:26;20.80;87.50
61392;DHT22;47261;52.892;5.738;2022-08-01T09:03:52;20.90;85.10
61392;DHT22;47261;52.892;5.738;2022-08-01T09:06:18;20.90;83.40
61392;DHT22;47261;52.892;5.738;2022-08-01T09:08:43;20.90;84.10
61392;DHT22;47261;52.892;5.738;2022-08-01T09:11:09;20.90;83.10
61392;DHT22;47261;52.892;5.738;2022-08-01T09:13:35;20.90;83.20
61392;DHT22;47261;52.892;5.738;2022-08-01T09:16:00;20.90;83.60
61392;DHT22;47261;52.892;5.738;2022-08-01T09:18:36;21.00;84.80
61392;DHT22;47261;52.892;5.738;2022-08-01T09:21:12;21.10;84.70
61392;DHT22;47261;52.892;5.738;2022-08-01T09:23:40;21.20;84.60
61392;DHT22;47261;52.892;5.738;2022-08-01T09:26:08;21.30;83.30
61392;DHT22;47261;52.892;5.738;2022-08-01T09:28:34;21.40;83.00
61392;DHT22;47261;52.892;5.738;2022-08-01T09:31:05;21.40;82.90
61392;DHT22;47261;52.892;5.738;2022-08-01T09:33:46;21.50;82.80
61392;DHT22;47261;52.892;5.738;2022-08-01T09:36:11;21.70;83.50
61392;DHT22;47261;52.892;5.738;2022-08-01T09:38:37;22.00;83.80
61392;DHT22;47261;52.892;5.738;2022-08-01T09:41:02;22.30;83.20
61392;DHT22;47261;52.892;5.738;2022-08-01T09:43:28;22.50;80.30
61392;DHT22;47261;52.892;5.738;2022-08-01T09:45:54;22.60;78.80
61392;DHT22;47261;52.892;5.738;2022-08-01T09:48:21;22.80;79.40
61392;DHT22;47261;52.892;5.738;2022-08-01T09:50:47;22.90;78.00
61392;DHT22;47261;52.892;5.738;2022-08-01T09:53:13;22.90;77.30
61392;DHT22;47261;52.892;5.738;2022-08-01T09:55:40;22.80;77.90
61392;DHT22;47261;52.892;5.738;2022-08-01T09:58:06;22.90;76.10
61392;DHT22;47261;52.892;5.738;2022-08-01T10:00:32;22.80;75.70
61392;DHT22;47261;52.892;5.738;2022-08-01T10:02:58;22.80;76.90
61392;DHT22;47261;52.892;5.738;2022-08-01T10:05:30;22.90;76.30
61392;DHT22;47261;52.892;5.738;2022-08-01T10:07:57;22.90;75.40
61392;DHT22;47261;52.892;5.738;2022-08-01T10:10:23;22.70;73.60
61392;DHT22;47261;52.892;5.738;2022-08-01T10:12:49;22.70;74.50
61392;DHT22;47261;52.892;5.738;2022-08-01T10:15:15;22.70;74.30
61392;DHT22;47261;52.892;5.738;2022-08-01T10:17:58;23.00;75.30
61392;DHT22;47261;52.892;5.738;2022-08-01T10:20:26;23.10;73.70
61392;DHT22;47261;52.892;5.738;2022-08-01T10:22:55;23.30;74.30
61392;DHT22;47261;52.892;5.738;2022-08-01T10:25:23;23.40;73.00
61392;DHT22;47261;52.892;5.738;2022-08-01T10:27:49;23.30;71.80
61392;DHT22;47261;52.892;5.738;2022-08-01T10:30:14;23.10;71.20
61392;DHT22;47261;52.892;5.738;2022-08-01T10:32:40;23.00;70.50
61392;DHT22;47261;52.892;5.738;2022-08-01T10:35:08;22.90;71.10
61392;DHT22;47261;52.892;5.738;2022-08-01T10:37:34;23.00;72.00
61392;DHT22;47261;52.892;5.738;2022-08-01T10:40:00;23.10;71.00
61392;DHT22;47261;52.892;5.738;2022-08-01T10:42:26;23.10;70.00
61392;DHT22;47261;52.892;5.738;2022-08-01T10:44:53;23.00;70.00
61392;DHT22;47261;52.892;5.738;2022-08-01T10:47:21;22.90;70.30
61392;DHT22;47261;52.892;5.738;2022-08-01T10:50:03;23.00;71.20
61392;DHT22;47261;52.892;5.738;2022-08-01T10:52:29;23.10;71.60
61392;DHT22;47261;52.892;5.738;2022-08-01T12:50:07;23.40;63.90
61392;DHT22;47261;52.892;5.738;2022-08-01T12:52:35;23.40;62.90
61392;DHT22;47261;52.892;5.738;2022-08-01T12:57:27;23.30;62.40
61392;DHT22;47261;52.892;5.738;2022-08-01T12:59:53;23.20;62.30
61392;DHT22;47261;52.892;5.738;2022-08-01T13:02:18;23.20;62.50
61392;DHT22;47261;52.892;5.738;2022-08-01T13:04:50;23.10;63.40
61392;DHT22;47261;52.892;5.738;2022-08-01T13:07:18;23.00;63.40
61392;DHT22;47261;52.892;5.738;2022-08-01T13:09:50;23.00;63.60
61392;DHT22;47261;52.892;5.738;2022-08-01T13:12:16;23.10;63.30
61392;DHT22;47261;52.892;5.738;2022-08-01T13:14:42;23.10;63.40
61392;DHT22;47261;52.892;5.738;2022-08-01T13:17:07;23.10;63.60
61392;DHT22;47261;52.892;5.738;2022-08-01T13:19:43;23.00;62.20
61392;DHT22;47261;52.892;5.738;2022-08-01T13:22:08;23.00;62.90
61392;DHT22;47261;52.892;5.738;2022-08-01T13:24:34;23.10;63.30
61392;DHT22;47261;52.892;5.738;2022-08-01T13:27:01;23.20;63.40
61392;DHT22;47261;52.892;5.738;2022-08-01T13:29:38;23.20;61.30
61392;DHT22;47261;52.892;5.738;2022-08-01T13:32:13;23.20;61.80
61392;DHT22;47261;52.892;5.738;2022-08-01T13:34:39;23.20;61.80
61392;DHT22;47261;52.892;5.738;2022-08-01T13:37:04;23.20;61.70
61392;DHT22;47261;52.892;5.738;2022-08-01T13:39:31;23.10;60.60
61392;DHT22;47261;52.892;5.738;2022-08-01T13:42:09;23.10;61.20
61392;DHT22;47261;52.892;5.738;2022-08-01T13:44:35;23.00;62.00
61392;DHT22;47261;52.892;5.738;2022-08-01T13:47:02;23.00;62.30
61392;DHT22;47261;52.892;5.738;2022-08-01T13:49:27;23.00;61.90
61392;DHT22;47261;52.892;5.738;2022-08-01T13:51:53;23.00;61.50
61392;DHT22;47261;52.892;5.738;2022-08-01T13:54:18;23.00;61.80
61392;DHT22;47261;52.892;5.738;2022-08-01T13:56:44;23.00;61.60
61392;DHT22;47261;52.892;5.738;2022-08-01T13:59:09;23.00;61.70
61392;DHT22;47261;52.892;5.738;2022-08-01T14:01:35;23.00;61.80
61392;DHT22;47261;52.892;5.738;2022-08-01T14:04:01;23.00;61.90
61392;DHT22;47261;52.892;5.738;2022-08-01T14:06:27;23.10;62.20
61392;DHT22;47261;52.892;5.738;2022-08-01T14:08:52;23.20;62.20
61392;DHT22;47261;52.892;5.738;2022-08-01T14:11:18;23.30;62.30
61392;DHT22;47261;52.892;5.738;2022-08-01T14:13:44;23.40;62.00
61392;DHT22;47261;52.892;5.738;2022-08-01T14:16:09;23.50;62.00
61392;DHT22;47261;52.892;5.738;2022-08-01T14:18:35;23.70;62.30
61392;DHT22;47261;52.892;5.738;2022-08-01T14:21:00;23.90;62.10
61392;DHT22;47261;52.892;5.738;2022-08-01T14:23:26;24.00;61.60
61392;DHT22;47261;52.892;5.738;2022-08-01T14:25:51;24.10;61.60
61392;DHT22;47261;52.892;5.738;2022-08-01T14:28:17;24.10;60.70
61392;DHT22;47261;52.892;5.738;2022-08-01T14:30:43;24.10;60.00
61392;DHT22;47261;52.892;5.738;2022-08-01T14:33:09;24.00;60.20
61392;DHT22;47261;52.892;5.738;2022-08-01T14:35:35;24.00;60.60
61392;DHT22;47261;52.892;5.738;2022-08-01T14:38:00;24.00;60.50
61392;DHT22;47261;52.892;5.738;2022-08-01T14:40:26;24.00;60.50
61392;DHT22;47261;52.892;5.738;2022-08-01T14:42:51;23.90;60.40
61392;DHT22;47261;52.892;5.738;2022-08-01T14:45:17;23.90;59.30
61392;DHT22;47261;52.892;5.738;2022-08-01T14:47:42;23.80;59.50
61392;DHT22;47261;52.892;5.738;2022-08-01T14:50:09;23.80;59.90
61392;DHT22;47261;52.892;5.738;2022-08-01T14:52:35;23.80;59.50
61392;DHT22;47261;52.892;5.738;2022-08-01T14:55:02;23.70;58.90
61392;DHT22;47261;52.892;5.738;2022-08-01T14:57:28;23.50;58.50
61392;DHT22;47261;52.892;5.738;2022-08-01T14:59:53;23.30;59.10
61392;DHT22;47261;52.892;5.738;2022-08-01T15:02:19;23.20;60.10
61392;DHT22;47261;52.892;5.738;2022-08-01T15:04:47;23.10;60.60
61392;DHT22;47261;52.892;5.738;2022-08-01T15:07:13;23.10;60.70
61392;DHT22;47261;52.892;5.738;2022-08-01T15:09:39;23.10;61.10
61392;DHT22;47261;52.892;5.738;2022-08-01T15:12:04;23.00;61.30
61392;DHT22;47261;52.892;5.738;2022-08-01T15:14:30;23.10;61.60
61392;DHT22;47261;52.892;5.738;2022-08-01T15:17:22;23.10;61.60
61392;DHT22;47261;52.892;5.738;2022-08-01T15:19:49;23.10;61.50
61392;DHT22;47261;52.892;5.738;2022-08-01T15:22:15;23.00;61.10
61392;DHT22;47261;52.892;5.738;2022-08-01T15:24:41;22.90;60.70
61392;DHT22;47261;52.892;5.738;2022-08-01T15:27:06;22.80;60.50
61392;DHT22;47261;52.892;5.738;2022-08-01T15:29:32;22.60;60.60
61392;DHT22;47261;52.892;5.738;2022-08-01T15:31:59;22.60;60.70
61392;DHT22;47261;52.892;5.738;2022-08-01T15:34:25;22.60;60.80
61392;DHT22;47261;52.892;5.738;2022-08-01T15:36:51;22.50;61.20
61392;DHT22;47261;52.892;5.738;2022-08-01T15:39:16;22.40;62.10
61392;DHT22;47261;52.892;5.738;2022-08-01T15:41:42;22.30;61.60
61392;DHT22;47261;52.892;5.738;2022-08-01T15:44:07;22.20;61.90
61392;DHT22;47261;52.892;5.738;2022-08-01T15:46:33;22.20;61.70
61392;DHT22;47261;52.892;5.738;2022-08-01T15:49:01;22.10;62.10
61392;DHT22;47261;52.892;5.738;2022-08-01T15:51:27;22.10;61.20
61392;DHT22;47261;52.892;5.738;2022-08-01T15:53:52;21.90;61.10
61392;DHT22;47261;52.892;5.738;2022-08-01T15:56:18;21.90;60.70
61392;DHT22;47261;52.892;5.738;2022-08-01T15:58:43;21.80;61.00
61392;DHT22;47261;52.892;5.738;2022-08-01T16:01:09;21.80;61.70
61392;DHT22;47261;52.892;5.738;2022-08-01T16:03:35;21.80;62.20
61392;DHT22;47261;52.892;5.738;2022-08-01T16:06:00;21.80;62.30
61392;DHT22;47261;52.892;5.738;2022-08-01T16:08:26;21.80;62.90
61392;DHT22;47261;52.892;5.738;2022-08-01T16:10:51;21.70;62.80
61392;DHT22;47261;52.892;5.738;2022-08-01T16:13:17;21.70;63.20
61392;DHT22;47261;52.892;5.738;2022-08-01T16:15:42;21.70;62.90
61392;DHT22;47261;52.892;5.738;2022-08-01T16:18:08;21.60;62.60
61392;DHT22;47261;52.892;5.738;2022-08-01T16:20:34;21.50;62.60
61392;DHT22;47261;52.892;5.738;2022-08-01T16:23:00;21.50;63.10
61392;DHT22;47261;52.892;5.738;2022-08-01T16:25:25;21.50;64.60
61392;DHT22;47261;52.892;5.738;2022-08-01T16:27:51;21.50;64.70
61392;DHT22;47261;52.892;5.738;2022-08-01T16:30:17;21.50;64.60
61392;DHT22;47261;52.892;5.738;2022-08-01T16:32:42;21.50;64.30
61392;DHT22;47261;52.892;5.738;2022-08-01T16:35:08;21.50;64.00
61392;DHT22;47261;52.892;5.738;2022-08-01T16:37:34;21.50;63.80
61392;DHT22;47261;52.892;5.738;2022-08-01T16:39:59;21.50;64.00
61392;DHT22;47261;52.892;5.738;2022-08-01T16:42:25;21.50;63.60
61392;DHT22;47261;52.892;5.738;2022-08-01T16:44:50;21.50;63.50
61392;DHT22;47261;52.892;5.738;2022-08-01T16:47:19;21.40;63.40
61392;DHT22;47261;52.892;5.738;2022-08-01T16:49:45;21.40;63.60
61392;DHT22;47261;52.892;5.738;2022-08-01T16:52:13;21.40;63.90
61392;DHT22;47261;52.892;5.738;2022-08-01T16:54:38;21.30;64.00
61392;DHT22;47261;52.892;5.738;2022-08-01T16:57:04;21.40;64.30
61392;DHT22;47261;52.892;5.738;2022-08-01T16:59:29;21.40;64.10
61392;DHT22;47261;52.892;5.738;2022-08-01T17:01:56;21.40;64.00
61392;DHT22;47261;52.892;5.738;2022-08-01T17:04:21;21.30;62.60
61392;DHT22;47261;52.892;5.738;2022-08-01T17:06:47;21.30;63.00
61392;DHT22;47261;52.892;5.738;2022-08-01T17:09:12;21.20;63.00
61392;DHT22;47261;52.892;5.738;2022-08-01T17:11:38;21.20;62.90
61392;DHT22;47261;52.892;5.738;2022-08-01T17:14:03;21.10;63.20
61392;DHT22;47261;52.892;5.738;2022-08-01T17:16:30;21.10;63.50
61392;DHT22;47261;52.892;5.738;2022-08-01T17:18:55;21.00;63.50
61392;DHT22;47261;52.892;5.738;2022-08-01T17:21:21;21.00;63.70
61392;DHT22;47261;52.892;5.738;2022-08-01T17:23:46;21.00;64.20
61392;DHT22;47261;52.892;5.738;2022-08-01T17:26:12;21.00;63.80
61392;DHT22;47261;52.892;5.738;2022-08-01T17:28:38;21.00;63.70
61392;DHT22;47261;52.892;5.738;2022-08-01T17:31:03;21.00;63.80
61392;DHT22;47261;52.892;5.738;2022-08-01T17:33:29;21.00;63.80